Terminal Aerodrome Forecast
Issued by NWS Charleston, WV

Current Version | Previous Version | Graphics & Text | Print | Product List | Glossary On
Versions: 1 2 3 4 5 6 7 8 9 10 11 12 13 14 15 16 17 18 19 20 21 22 23 24 25 26 27 28 29 30 31 32 33 34 35 36 37 38 39 40
000
FTUS41 KRLX 280547 RRB
TAFHTS
TAF
KHTS 280547Z 2806/2906 00000KT 4SM BR OVC002
     FM280700 00000KT 2SM SHRA BKN003
     FM281300 00000KT 5SM BR OVC070
     FM281800 VRB03KT 3SM TSRA HZ OVC025CB
     FM290100 00000KT 6SM +TSRA BR OVC040CB
     FM290500 VRB03KT P6SM BKN200=

USA.gov is the U.S. government's official web portal to all federal, state and local government web resources and services.